sensor_id;sensor_type;location;lat;lon;timestamp;temperature;humidity
70706;DHT22;59320;52.316;10.870;2023-05-07T00:01:42;11.70;97.40
70706;DHT22;59320;52.316;10.870;2023-05-07T00:04:09;11.70;97.50
70706;DHT22;59320;52.316;10.870;2023-05-07T00:06:38;11.60;97.60
70706;DHT22;59320;52.316;10.870;2023-05-07T00:09:05;11.70;97.40
70706;DHT22;59320;52.316;10.870;2023-05-07T00:11:33;11.70;97.40
70706;DHT22;59320;52.316;10.870;2023-05-07T00:14:00;11.70;97.30
70706;DHT22;59320;52.316;10.870;2023-05-07T00:16:27;11.60;97.40
70706;DHT22;59320;52.316;10.870;2023-05-07T00:18:54;11.60;97.50
70706;DHT22;59320;52.316;10.870;2023-05-07T00:21:22;11.60;97.40
70706;DHT22;59320;52.316;10.870;2023-05-07T00:23:53;11.60;97.40
70706;DHT22;59320;52.316;10.870;2023-05-07T00:26:20;11.50;97.70
70706;DHT22;59320;52.316;10.870;2023-05-07T00:28:49;11.60;97.30
70706;DHT22;59320;52.316;10.870;2023-05-07T00:31:17;11.70;97.10
70706;DHT22;59320;52.316;10.870;2023-05-07T00:33:44;11.60;96.80
70706;DHT22;59320;52.316;10.870;2023-05-07T00:36:11;11.60;96.50
70706;DHT22;59320;52.316;10.870;2023-05-07T00:38:38;11.80;96.20
70706;DHT22;59320;52.316;10.870;2023-05-07T00:41:07;11.80;96.00
70706;DHT22;59320;52.316;10.870;2023-05-07T00:43:34;11.80;96.00
70706;DHT22;59320;52.316;10.870;2023-05-07T00:46:01;11.80;95.90
70706;DHT22;59320;52.316;10.870;2023-05-07T00:48:28;11.80;96.10
70706;DHT22;59320;52.316;10.870;2023-05-07T00:50:56;11.90;96.10
70706;DHT22;59320;52.316;10.870;2023-05-07T00:53:23;11.90;96.40
70706;DHT22;59320;52.316;10.870;2023-05-07T00:55:51;11.80;96.10
70706;DHT22;59320;52.316;10.870;2023-05-07T00:58:19;11.80;96.20
70706;DHT22;59320;52.316;10.870;2023-05-07T01:00:47;11.80;96.10
70706;DHT22;59320;52.316;10.870;2023-05-07T01:03:15;11.80;96.10
70706;DHT22;59320;52.316;10.870;2023-05-07T01:05:43;11.80;96.30
70706;DHT22;59320;52.316;10.870;2023-05-07T01:08:12;11.70;96.40
70706;DHT22;59320;52.316;10.870;2023-05-07T01:10:39;11.80;96.70
70706;DHT22;59320;52.316;10.870;2023-05-07T01:13:09;11.70;96.60
70706;DHT22;59320;52.316;10.870;2023-05-07T01:15:38;11.80;96.50
70706;DHT22;59320;52.316;10.870;2023-05-07T01:18:06;11.80;96.60
70706;DHT22;59320;52.316;10.870;2023-05-07T01:20:35;11.80;96.60
70706;DHT22;59320;52.316;10.870;2023-05-07T01:23:03;11.80;96.90
70706;DHT22;59320;52.316;10.870;2023-05-07T01:25:31;11.80;96.70
70706;DHT22;59320;52.316;10.870;2023-05-07T01:28:00;11.80;96.80
70706;DHT22;59320;52.316;10.870;2023-05-07T01:30:30;11.80;96.60
70706;DHT22;59320;52.316;10.870;2023-05-07T01:33:03;11.70;97.00
70706;DHT22;59320;52.316;10.870;2023-05-07T01:35:35;11.70;97.00
70706;DHT22;59320;52.316;10.870;2023-05-07T01:38:05;11.60;97.20
70706;DHT22;59320;52.316;10.870;2023-05-07T01:40:33;11.60;97.40
70706;DHT22;59320;52.316;10.870;2023-05-07T01:43:02;11.60;97.20
70706;DHT22;59320;52.316;10.870;2023-05-07T01:45:30;11.50;97.40
70706;DHT22;59320;52.316;10.870;2023-05-07T01:47:58;11.40;97.50
70706;DHT22;59320;52.316;10.870;2023-05-07T01:50:25;11.30;97.80
70706;DHT22;59320;52.316;10.870;2023-05-07T01:52:52;11.40;97.70
70706;DHT22;59320;52.316;10.870;2023-05-07T01:55:21;11.50;97.70
70706;DHT22;59320;52.316;10.870;2023-05-07T01:57:48;11.30;97.90
70706;DHT22;59320;52.316;10.870;2023-05-07T02:00:16;11.40;97.70
70706;DHT22;59320;52.316;10.870;2023-05-07T02:02:44;11.30;98.00
70706;DHT22;59320;52.316;10.870;2023-05-07T02:05:24;11.20;98.10
70706;DHT22;59320;52.316;10.870;2023-05-07T02:07:58;11.30;97.90
70706;DHT22;59320;52.316;10.870;2023-05-07T02:10:28;11.30;98.00
70706;DHT22;59320;52.316;10.870;2023-05-07T02:12:55;11.20;98.10
70706;DHT22;59320;52.316;10.870;2023-05-07T02:15:23;11.20;98.00
70706;DHT22;59320;52.316;10.870;2023-05-07T02:18:02;11.20;98.00
70706;DHT22;59320;52.316;10.870;2023-05-07T02:20:29;11.20;98.00
70706;DHT22;59320;52.316;10.870;2023-05-07T02:22:56;11.30;97.70
70706;DHT22;59320;52.316;10.870;2023-05-07T02:25:25;11.30;97.60
70706;DHT22;59320;52.316;10.870;2023-05-07T02:27:54;11.30;97.60
70706;DHT22;59320;52.316;10.870;2023-05-07T02:30:26;11.30;97.70
70706;DHT22;59320;52.316;10.870;2023-05-07T02:32:56;11.30;97.60
70706;DHT22;59320;52.316;10.870;2023-05-07T02:35:24;11.20;97.60
70706;DHT22;59320;52.316;10.870;2023-05-07T02:37:51;11.20;97.50
70706;DHT22;59320;52.316;10.870;2023-05-07T02:40:19;11.20;97.40
70706;DHT22;59320;52.316;10.870;2023-05-07T02:42:46;11.20;97.00
70706;DHT22;59320;52.316;10.870;2023-05-07T02:45:15;11.10;97.30
70706;DHT22;59320;52.316;10.870;2023-05-07T02:47:43;11.10;96.80
70706;DHT22;59320;52.316;10.870;2023-05-07T02:50:11;11.10;96.70
70706;DHT22;59320;52.316;10.870;2023-05-07T02:52:38;11.10;96.70
70706;DHT22;59320;52.316;10.870;2023-05-07T02:55:06;11.00;96.70
70706;DHT22;59320;52.316;10.870;2023-05-07T02:57:33;11.20;96.60
70706;DHT22;59320;52.316;10.870;2023-05-07T03:00:10;11.20;96.40
70706;DHT22;59320;52.316;10.870;2023-05-07T03:02:42;11.30;96.50
70706;DHT22;59320;52.316;10.870;2023-05-07T03:05:10;11.30;96.30
70706;DHT22;59320;52.316;10.870;2023-05-07T03:07:37;11.40;96.10
70706;DHT22;59320;52.316;10.870;2023-05-07T03:10:05;11.30;96.00
70706;DHT22;59320;52.316;10.870;2023-05-07T03:12:32;11.30;96.10
70706;DHT22;59320;52.316;10.870;2023-05-07T03:14:59;11.30;96.10
70706;DHT22;59320;52.316;10.870;2023-05-07T03:17:27;11.20;96.20
70706;DHT22;59320;52.316;10.870;2023-05-07T03:19:55;11.30;96.30
70706;DHT22;59320;52.316;10.870;2023-05-07T03:22:22;11.30;96.20
70706;DHT22;59320;52.316;10.870;2023-05-07T03:24:49;11.40;96.10
70706;DHT22;59320;52.316;10.870;2023-05-07T03:27:16;11.40;96.30
70706;DHT22;59320;52.316;10.870;2023-05-07T03:29:44;11.40;96.00
70706;DHT22;59320;52.316;10.870;2023-05-07T03:32:11;11.40;96.00
70706;DHT22;59320;52.316;10.870;2023-05-07T03:34:38;11.40;95.80
70706;DHT22;59320;52.316;10.870;2023-05-07T03:37:07;11.30;95.90
70706;DHT22;59320;52.316;10.870;2023-05-07T03:39:34;11.30;96.00
70706;DHT22;59320;52.316;10.870;2023-05-07T03:42:02;11.30;96.00
70706;DHT22;59320;52.316;10.870;2023-05-07T03:44:32;11.30;95.90
70706;DHT22;59320;52.316;10.870;2023-05-07T03:47:00;11.20;95.90
70706;DHT22;59320;52.316;10.870;2023-05-07T03:49:27;11.20;95.80
70706;DHT22;59320;52.316;10.870;2023-05-07T03:51:54;11.30;95.90
70706;DHT22;59320;52.316;10.870;2023-05-07T03:54:23;11.30;95.60
70706;DHT22;59320;52.316;10.870;2023-05-07T03:56:50;11.40;95.40
70706;DHT22;59320;52.316;10.870;2023-05-07T03:59:17;11.30;95.50
70706;DHT22;59320;52.316;10.870;2023-05-07T04:01:46;11.30;95.40
70706;DHT22;59320;52.316;10.870;2023-05-07T04:04:16;11.30;95.30
70706;DHT22;59320;52.316;10.870;2023-05-07T04:06:44;11.30;95.20
70706;DHT22;59320;52.316;10.870;2023-05-07T04:09:11;11.30;95.20
70706;DHT22;59320;52.316;10.870;2023-05-07T04:11:39;11.30;95.30
70706;DHT22;59320;52.316;10.870;2023-05-07T04:14:09;11.30;95.30
70706;DHT22;59320;52.316;10.870;2023-05-07T04:16:36;11.30;95.30
70706;DHT22;59320;52.316;10.870;2023-05-07T04:19:04;11.30;95.50
70706;DHT22;59320;52.316;10.870;2023-05-07T04:21:34;11.30;95.50
70706;DHT22;59320;52.316;10.870;2023-05-07T04:24:03;11.30;95.40
70706;DHT22;59320;52.316;10.870;2023-05-07T04:26:30;11.30;95.50
70706;DHT22;59320;52.316;10.870;2023-05-07T04:28:58;11.40;95.50
70706;DHT22;59320;52.316;10.870;2023-05-07T04:31:30;11.30;95.30
70706;DHT22;59320;52.316;10.870;2023-05-07T04:33:58;11.30;95.20
70706;DHT22;59320;52.316;10.870;2023-05-07T04:36:26;11.30;95.30
70706;DHT22;59320;52.316;10.870;2023-05-07T04:39:02;11.40;95.60
70706;DHT22;59320;52.316;10.870;2023-05-07T04:41:29;11.40;95.20
70706;DHT22;59320;52.316;10.870;2023-05-07T04:43:58;11.40;95.20
70706;DHT22;59320;52.316;10.870;2023-05-07T04:46:27;11.50;95.30
70706;DHT22;59320;52.316;10.870;2023-05-07T04:48:56;11.50;94.90
70706;DHT22;59320;52.316;10.870;2023-05-07T04:51:23;11.50;95.10
70706;DHT22;59320;52.316;10.870;2023-05-07T04:53:51;11.40;95.10
70706;DHT22;59320;52.316;10.870;2023-05-07T04:56:18;11.40;95.50
70706;DHT22;59320;52.316;10.870;2023-05-07T04:58:46;11.40;95.10
70706;DHT22;59320;52.316;10.870;2023-05-07T05:01:17;11.40;95.10
70706;DHT22;59320;52.316;10.870;2023-05-07T05:03:44;11.30;95.30
70706;DHT22;59320;52.316;10.870;2023-05-07T05:06:11;11.40;95.30
70706;DHT22;59320;52.316;10.870;2023-05-07T05:08:38;11.30;95.10
70706;DHT22;59320;52.316;10.870;2023-05-07T05:11:05;11.30;95.30
70706;DHT22;59320;52.316;10.870;2023-05-07T05:13:35;11.30;95.30
70706;DHT22;59320;52.316;10.870;2023-05-07T05:16:09;11.40;95.30
70706;DHT22;59320;52.316;10.870;2023-05-07T05:18:39;11.40;95.20
70706;DHT22;59320;52.316;10.870;2023-05-07T05:21:08;11.40;95.20
70706;DHT22;59320;52.316;10.870;2023-05-07T05:23:35;11.40;95.30
70706;DHT22;59320;52.316;10.870;2023-05-07T05:26:03;11.40;95.40
70706;DHT22;59320;52.316;10.870;2023-05-07T05:28:32;11.50;95.30
70706;DHT22;59320;52.316;10.870;2023-05-07T05:31:00;11.50;95.30
70706;DHT22;59320;52.316;10.870;2023-05-07T05:33:30;11.40;95.20
70706;DHT22;59320;52.316;10.870;2023-05-07T05:36:04;11.40;95.30
70706;DHT22;59320;52.316;10.870;2023-05-07T05:38:32;11.40;95.50
70706;DHT22;59320;52.316;10.870;2023-05-07T05:40:59;11.40;95.30
70706;DHT22;59320;52.316;10.870;2023-05-07T05:43:28;11.40;95.20
70706;DHT22;59320;52.316;10.870;2023-05-07T05:45:55;11.40;95.20
70706;DHT22;59320;52.316;10.870;2023-05-07T05:48:23;11.40;95.20
70706;DHT22;59320;52.316;10.870;2023-05-07T05:50:50;11.50;95.30
70706;DHT22;59320;52.316;10.870;2023-05-07T05:53:19;11.50;95.40
70706;DHT22;59320;52.316;10.870;2023-05-07T05:55:47;11.60;94.90
70706;DHT22;59320;52.316;10.870;2023-05-07T05:58:14;11.60;95.10
70706;DHT22;59320;52.316;10.870;2023-05-07T06:00:46;11.50;95.10
70706;DHT22;59320;52.316;10.870;2023-05-07T06:03:14;11.60;95.00
70706;DHT22;59320;52.316;10.870;2023-05-07T06:05:42;11.70;95.20
70706;DHT22;59320;52.316;10.870;2023-05-07T06:08:09;11.80;94.90
70706;DHT22;59320;52.316;10.870;2023-05-07T06:10:38;11.80;95.00
70706;DHT22;59320;52.316;10.870;2023-05-07T06:13:07;11.80;95.10
70706;DHT22;59320;52.316;10.870;2023-05-07T06:15:36;11.70;94.70
70706;DHT22;59320;52.316;10.870;2023-05-07T06:18:08;11.60;94.80
70706;DHT22;59320;52.316;10.870;2023-05-07T06:20:35;11.60;94.80
70706;DHT22;59320;52.316;10.870;2023-05-07T06:23:05;11.60;94.80
70706;DHT22;59320;52.316;10.870;2023-05-07T06:25:34;11.60;95.00
70706;DHT22;59320;52.316;10.870;2023-05-07T06:28:02;11.70;95.10
70706;DHT22;59320;52.316;10.870;2023-05-07T06:30:31;11.70;94.80
70706;DHT22;59320;52.316;10.870;2023-05-07T06:32:58;11.60;95.00
70706;DHT22;59320;52.316;10.870;2023-05-07T06:35:26;11.60;95.20
70706;DHT22;59320;52.316;10.870;2023-05-07T06:37:53;11.50;95.10
70706;DHT22;59320;52.316;10.870;2023-05-07T06:40:27;11.40;95.20
70706;DHT22;59320;52.316;10.870;2023-05-07T06:42:56;11.50;95.20
70706;DHT22;59320;52.316;10.870;2023-05-07T06:45:41;11.70;95.00
70706;DHT22;59320;52.316;10.870;2023-05-07T06:48:10;11.70;94.90
70706;DHT22;59320;52.316;10.870;2023-05-07T06:50:48;11.70;95.00
70706;DHT22;59320;52.316;10.870;2023-05-07T06:53:15;11.80;94.80
70706;DHT22;59320;52.316;10.870;2023-05-07T06:55:42;11.80;94.70
70706;DHT22;59320;52.316;10.870;2023-05-07T06:58:10;11.80;94.60
70706;DHT22;59320;52.316;10.870;2023-05-07T07:00:38;11.90;94.50
70706;DHT22;59320;52.316;10.870;2023-05-07T07:03:07;12.00;94.50
70706;DHT22;59320;52.316;10.870;2023-05-07T07:05:35;12.00;94.30
70706;DHT22;59320;52.316;10.870;2023-05-07T07:08:03;12.10;94.50
70706;DHT22;59320;52.316;10.870;2023-05-07T07:10:31;12.20;94.30
70706;DHT22;59320;52.316;10.870;2023-05-07T07:12:59;12.10;94.20
70706;DHT22;59320;52.316;10.870;2023-05-07T07:15:26;12.10;94.20
70706;DHT22;59320;52.316;10.870;2023-05-07T07:17:55;12.20;94.30
70706;DHT22;59320;52.316;10.870;2023-05-07T07:20:27;12.20;94.20
70706;DHT22;59320;52.316;10.870;2023-05-07T07:22:55;12.30;94.00
70706;DHT22;59320;52.316;10.870;2023-05-07T07:25:22;12.40;93.60
70706;DHT22;59320;52.316;10.870;2023-05-07T07:27:50;12.50;93.40
70706;DHT22;59320;52.316;10.870;2023-05-07T07:30:18;12.40;93.50
70706;DHT22;59320;52.316;10.870;2023-05-07T07:32:48;12.50;93.00
70706;DHT22;59320;52.316;10.870;2023-05-07T07:35:16;12.40;93.00
70706;DHT22;59320;52.316;10.870;2023-05-07T07:37:46;12.40;93.00
70706;DHT22;59320;52.316;10.870;2023-05-07T07:40:16;12.50;92.80
70706;DHT22;59320;52.316;10.870;2023-05-07T07:42:44;12.50;93.10
70706;DHT22;59320;52.316;10.870;2023-05-07T07:45:12;12.60;93.10
70706;DHT22;59320;52.316;10.870;2023-05-07T07:47:43;12.60;93.10
70706;DHT22;59320;52.316;10.870;2023-05-07T07:50:11;12.70;92.90
70706;DHT22;59320;52.316;10.870;2023-05-07T07:52:38;12.80;92.60
70706;DHT22;59320;52.316;10.870;2023-05-07T07:55:08;12.80;92.40
70706;DHT22;59320;52.316;10.870;2023-05-07T07:57:37;12.80;92.20
70706;DHT22;59320;52.316;10.870;2023-05-07T08:00:05;12.80;92.40
70706;DHT22;59320;52.316;10.870;2023-05-07T08:02:42;12.70;92.40
70706;DHT22;59320;52.316;10.870;2023-05-07T08:05:12;12.80;92.60
70706;DHT22;59320;52.316;10.870;2023-05-07T08:07:41;12.80;92.20
70706;DHT22;59320;52.316;10.870;2023-05-07T08:10:12;12.80;92.10
70706;DHT22;59320;52.316;10.870;2023-05-07T08:12:47;12.80;92.00
70706;DHT22;59320;52.316;10.870;2023-05-07T08:15:14;12.80;91.90
70706;DHT22;59320;52.316;10.870;2023-05-07T08:17:42;12.70;92.20
70706;DHT22;59320;52.316;10.870;2023-05-07T08:20:10;12.80;92.10
70706;DHT22;59320;52.316;10.870;2023-05-07T08:22:37;12.70;92.10
70706;DHT22;59320;52.316;10.870;2023-05-07T08:25:07;12.80;92.20
70706;DHT22;59320;52.316;10.870;2023-05-07T08:27:36;12.90;92.10
70706;DHT22;59320;52.316;10.870;2023-05-07T08:30:04;12.90;91.90
70706;DHT22;59320;52.316;10.870;2023-05-07T08:32:31;13.00;91.70
70706;DHT22;59320;52.316;10.870;2023-05-07T08:34:59;13.10;91.70
70706;DHT22;59320;52.316;10.870;2023-05-07T08:37:27;13.20;91.50
70706;DHT22;59320;52.316;10.870;2023-05-07T08:39:54;13.10;91.60
70706;DHT22;59320;52.316;10.870;2023-05-07T08:42:24;13.10;91.70
70706;DHT22;59320;52.316;10.870;2023-05-07T08:44:56;13.20;91.40
70706;DHT22;59320;52.316;10.870;2023-05-07T08:47:29;13.30;91.20
70706;DHT22;59320;52.316;10.870;2023-05-07T08:50:02;13.30;91.10
70706;DHT22;59320;52.316;10.870;2023-05-07T08:52:29;13.40;91.00
70706;DHT22;59320;52.316;10.870;2023-05-07T08:54:57;13.40;91.10
70706;DHT22;59320;52.316;10.870;2023-05-07T08:57:25;13.50;91.10
70706;DHT22;59320;52.316;10.870;2023-05-07T08:59:54;13.60;91.40
70706;DHT22;59320;52.316;10.870;2023-05-07T09:02:22;13.70;90.90
70706;DHT22;59320;52.316;10.870;2023-05-07T09:04:49;13.60;90.90
70706;DHT22;59320;52.316;10.870;2023-05-07T09:07:17;13.80;91.00
70706;DHT22;59320;52.316;10.870;2023-05-07T09:09:44;13.80;90.50
70706;DHT22;59320;52.316;10.870;2023-05-07T09:12:12;13.80;90.50
70706;DHT22;59320;52.316;10.870;2023-05-07T09:14:40;13.80;90.20
70706;DHT22;59320;52.316;10.870;2023-05-07T09:17:09;13.80;90.30
70706;DHT22;59320;52.316;10.870;2023-05-07T09:19:36;13.80;90.20
70706;DHT22;59320;52.316;10.870;2023-05-07T09:22:06;13.70;90.40
70706;DHT22;59320;52.316;10.870;2023-05-07T09:24:52;13.80;90.60
70706;DHT22;59320;52.316;10.870;2023-05-07T09:27:23;13.80;90.50
70706;DHT22;59320;52.316;10.870;2023-05-07T09:29:51;13.90;90.20
70706;DHT22;59320;52.316;10.870;2023-05-07T09:32:19;13.80;90.20
70706;DHT22;59320;52.316;10.870;2023-05-07T09:34:47;13.70;89.90
70706;DHT22;59320;52.316;10.870;2023-05-07T09:37:16;13.60;90.00
70706;DHT22;59320;52.316;10.870;2023-05-07T09:39:46;13.60;90.30
70706;DHT22;59320;52.316;10.870;2023-05-07T09:42:22;13.60;90.30
70706;DHT22;59320;52.316;10.870;2023-05-07T09:44:50;13.80;89.70
70706;DHT22;59320;52.316;10.870;2023-05-07T09:47:24;13.90;89.10
70706;DHT22;59320;52.316;10.870;2023-05-07T09:49:56;14.00;89.00
70706;DHT22;59320;52.316;10.870;2023-05-07T09:52:24;14.10;89.50
70706;DHT22;59320;52.316;10.870;2023-05-07T09:54:56;14.10;88.40
70706;DHT22;59320;52.316;10.870;2023-05-07T09:57:27;14.10;89.00
70706;DHT22;59320;52.316;10.870;2023-05-07T10:00:00;14.20;89.30
70706;DHT22;59320;52.316;10.870;2023-05-07T10:02:34;14.30;88.60
70706;DHT22;59320;52.316;10.870;2023-05-07T10:05:02;14.40;87.20
70706;DHT22;59320;52.316;10.870;2023-05-07T10:07:32;14.60;86.80
70706;DHT22;59320;52.316;10.870;2023-05-07T10:10:06;14.70;86.80
70706;DHT22;59320;52.316;10.870;2023-05-07T10:12:38;14.70;85.70
70706;DHT22;59320;52.316;10.870;2023-05-07T10:15:12;14.80;86.50
70706;DHT22;59320;52.316;10.870;2023-05-07T10:17:44;14.80;85.30
70706;DHT22;59320;52.316;10.870;2023-05-07T10:20:12;14.80;86.40
70706;DHT22;59320;52.316;10.870;2023-05-07T10:22:47;14.70;85.80
70706;DHT22;59320;52.316;10.870;2023-05-07T10:25:23;14.70;85.80
70706;DHT22;59320;52.316;10.870;2023-05-07T10:27:53;14.80;86.50
70706;DHT22;59320;52.316;10.870;2023-05-07T10:30:29;14.90;85.30
70706;DHT22;59320;52.316;10.870;2023-05-07T10:33:05;14.90;84.20
70706;DHT22;59320;52.316;10.870;2023-05-07T10:35:38;14.90;84.50
70706;DHT22;59320;52.316;10.870;2023-05-07T10:38:09;15.00;85.10
70706;DHT22;59320;52.316;10.870;2023-05-07T10:40:39;15.10;85.00
70706;DHT22;59320;52.316;10.870;2023-05-07T10:43:08;15.20;85.30
70706;DHT22;59320;52.316;10.870;2023-05-07T10:45:41;15.10;84.10
70706;DHT22;59320;52.316;10.870;2023-05-07T10:48:12;15.10;84.00
70706;DHT22;59320;52.316;10.870;2023-05-07T10:50:41;15.10;84.00
70706;DHT22;59320;52.316;10.870;2023-05-07T10:53:23;15.00;84.30
70706;DHT22;59320;52.316;10.870;2023-05-07T10:56:24;15.00;84.20
70706;DHT22;59320;52.316;10.870;2023-05-07T10:59:34;15.10;84.40
70706;DHT22;59320;52.316;10.870;2023-05-07T11:02:16;15.00;83.70
70706;DHT22;59320;52.316;10.870;2023-05-07T11:05:20;14.90;84.00
70706;DHT22;59320;52.316;10.870;2023-05-07T11:07:55;14.90;83.80
70706;DHT22;59320;52.316;10.870;2023-05-07T11:10:47;14.90;85.00
70706;DHT22;59320;52.316;10.870;2023-05-07T11:13:43;14.90;84.80
70706;DHT22;59320;52.316;10.870;2023-05-07T11:16:19;15.00;84.30
70706;DHT22;59320;52.316;10.870;2023-05-07T11:18:51;14.90;85.30
70706;DHT22;59320;52.316;10.870;2023-05-07T11:21:33;14.90;85.40
70706;DHT22;59320;52.316;10.870;2023-05-07T11:24:20;15.00;84.70
70706;DHT22;59320;52.316;10.870;2023-05-07T11:27:00;15.10;84.30
70706;DHT22;59320;52.316;10.870;2023-05-07T11:29:30;15.10;84.50
70706;DHT22;59320;52.316;10.870;2023-05-07T11:32:04;15.10;84.20
70706;DHT22;59320;52.316;10.870;2023-05-07T11:34:37;15.00;84.50
70706;DHT22;59320;52.316;10.870;2023-05-07T11:37:06;14.90;84.20
70706;DHT22;59320;52.316;10.870;2023-05-07T11:40:08;14.80;83.70
70706;DHT22;59320;52.316;10.870;2023-05-07T11:42:38;15.00;84.00
70706;DHT22;59320;52.316;10.870;2023-05-07T11:45:07;15.30;83.70
70706;DHT22;59320;52.316;10.870;2023-05-07T11:47:35;15.50;83.30
70706;DHT22;59320;52.316;10.870;2023-05-07T11:50:04;15.50;82.90
70706;DHT22;59320;52.316;10.870;2023-05-07T11:52:33;15.50;82.10
70706;DHT22;59320;52.316;10.870;2023-05-07T11:55:02;15.30;82.40
70706;DHT22;59320;52.316;10.870;2023-05-07T11:57:32;15.50;82.70
70706;DHT22;59320;52.316;10.870;2023-05-07T12:00:00;15.50;81.40
70706;DHT22;59320;52.316;10.870;2023-05-07T12:02:38;15.70;81.70
70706;DHT22;59320;52.316;10.870;2023-05-07T12:05:06;15.90;81.40
70706;DHT22;59320;52.316;10.870;2023-05-07T12:07:34;16.10;81.60
70706;DHT22;59320;52.316;10.870;2023-05-07T12:10:04;16.00;80.00
70706;DHT22;59320;52.316;10.870;2023-05-07T12:12:38;16.10;81.00
70706;DHT22;59320;52.316;10.870;2023-05-07T12:15:06;16.20;80.30
70706;DHT22;59320;52.316;10.870;2023-05-07T12:17:33;16.50;79.70
70706;DHT22;59320;52.316;10.870;2023-05-07T12:20:00;16.50;79.20
70706;DHT22;59320;52.316;10.870;2023-05-07T12:22:28;16.60;78.70
70706;DHT22;59320;52.316;10.870;2023-05-07T12:24:58;16.70;78.40
70706;DHT22;59320;52.316;10.870;2023-05-07T12:27:26;16.70;77.10
70706;DHT22;59320;52.316;10.870;2023-05-07T12:29:53;16.60;77.80
70706;DHT22;59320;52.316;10.870;2023-05-07T12:32:21;16.60;77.70
70706;DHT22;59320;52.316;10.870;2023-05-07T12:34:50;16.60;77.90
70706;DHT22;59320;52.316;10.870;2023-05-07T12:37:23;16.80;79.30
70706;DHT22;59320;52.316;10.870;2023-05-07T12:40:05;16.90;77.70
70706;DHT22;59320;52.316;10.870;2023-05-07T12:42:35;16.90;75.80
70706;DHT22;59320;52.316;10.870;2023-05-07T12:45:08;16.80;76.30
70706;DHT22;59320;52.316;10.870;2023-05-07T12:47:35;16.70;76.60
70706;DHT22;59320;52.316;10.870;2023-05-07T12:50:06;16.70;77.00
70706;DHT22;59320;52.316;10.870;2023-05-07T12:52:33;16.70;76.00
70706;DHT22;59320;52.316;10.870;2023-05-07T12:55:06;16.70;75.10
70706;DHT22;59320;52.316;10.870;2023-05-07T12:57:37;16.80;74.70
70706;DHT22;59320;52.316;10.870;2023-05-07T13:00:06;16.80;75.20
70706;DHT22;59320;52.316;10.870;2023-05-07T13:02:33;16.80;76.10
70706;DHT22;59320;52.316;10.870;2023-05-07T13:05:01;16.90;76.50
70706;DHT22;59320;52.316;10.870;2023-05-07T13:07:28;16.90;77.10
70706;DHT22;59320;52.316;10.870;2023-05-07T13:09:55;16.90;76.10
70706;DHT22;59320;52.316;10.870;2023-05-07T13:12:24;17.00;75.00
70706;DHT22;59320;52.316;10.870;2023-05-07T13:14:51;17.00;73.60
70706;DHT22;59320;52.316;10.870;2023-05-07T13:17:18;17.10;74.90
70706;DHT22;59320;52.316;10.870;2023-05-07T13:19:45;17.20;75.30
70706;DHT22;59320;52.316;10.870;2023-05-07T13:22:12;17.30;74.90
70706;DHT22;59320;52.316;10.870;2023-05-07T13:24:39;17.20;73.70
70706;DHT22;59320;52.316;10.870;2023-05-07T13:27:07;17.30;73.60
70706;DHT22;59320;52.316;10.870;2023-05-07T13:29:35;17.10;74.00
70706;DHT22;59320;52.316;10.870;2023-05-07T13:32:03;17.30;73.70
70706;DHT22;59320;52.316;10.870;2023-05-07T13:34:30;17.40;72.80
70706;DHT22;59320;52.316;10.870;2023-05-07T13:36:57;17.20;72.30
70706;DHT22;59320;52.316;10.870;2023-05-07T13:39:24;17.10;73.60
70706;DHT22;59320;52.316;10.870;2023-05-07T13:41:51;17.20;74.20
70706;DHT22;59320;52.316;10.870;2023-05-07T13:44:18;17.20;74.10
70706;DHT22;59320;52.316;10.870;2023-05-07T13:46:47;17.20;74.20
70706;DHT22;59320;52.316;10.870;2023-05-07T13:49:16;17.10;74.50
70706;DHT22;59320;52.316;10.870;2023-05-07T13:51:43;17.10;74.70
70706;DHT22;59320;52.316;10.870;2023-05-07T13:54:10;17.10;74.00
70706;DHT22;59320;52.316;10.870;2023-05-07T13:56:37;17.30;73.00
70706;DHT22;59320;52.316;10.870;2023-05-07T13:59:04;17.60;72.10
70706;DHT22;59320;52.316;10.870;2023-05-07T14:01:31;17.90;71.80
70706;DHT22;59320;52.316;10.870;2023-05-07T14:04:00;18.10;72.10
70706;DHT22;59320;52.316;10.870;2023-05-07T14:06:27;18.20;71.50
70706;DHT22;59320;52.316;10.870;2023-05-07T14:08:54;18.20;70.70
70706;DHT22;59320;52.316;10.870;2023-05-07T14:11:23;18.20;70.00
70706;DHT22;59320;52.316;10.870;2023-05-07T14:13:50;18.10;70.80
70706;DHT22;59320;52.316;10.870;2023-05-07T14:16:17;18.00;70.00
70706;DHT22;59320;52.316;10.870;2023-05-07T14:18:44;18.10;70.60
70706;DHT22;59320;52.316;10.870;2023-05-07T14:21:13;18.00;71.00
70706;DHT22;59320;52.316;10.870;2023-05-07T14:23:40;18.10;69.80
70706;DHT22;59320;52.316;10.870;2023-05-07T14:26:07;18.10;69.40
70706;DHT22;59320;52.316;10.870;2023-05-07T14:28:34;18.20;69.50
70706;DHT22;59320;52.316;10.870;2023-05-07T14:31:01;18.40;69.20
70706;DHT22;59320;52.316;10.870;2023-05-07T14:33:28;18.30;68.80
70706;DHT22;59320;52.316;10.870;2023-05-07T14:35:55;18.80;66.30
70706;DHT22;59320;52.316;10.870;2023-05-07T14:38:23;18.90;66.30
70706;DHT22;59320;52.316;10.870;2023-05-07T14:40:50;19.60;63.70
70706;DHT22;59320;52.316;10.870;2023-05-07T14:43:19;19.10;64.40
70706;DHT22;59320;52.316;10.870;2023-05-07T14:45:47;18.90;65.90
70706;DHT22;59320;52.316;10.870;2023-05-07T14:48:14;19.30;65.20
70706;DHT22;59320;52.316;10.870;2023-05-07T14:50:41;19.30;65.00
70706;DHT22;59320;52.316;10.870;2023-05-07T14:53:08;19.10;65.50
70706;DHT22;59320;52.316;10.870;2023-05-07T14:55:36;19.20;65.60
70706;DHT22;59320;52.316;10.870;2023-05-07T14:58:04;19.00;65.30
70706;DHT22;59320;52.316;10.870;2023-05-07T15:00:31;18.60;65.00
70706;DHT22;59320;52.316;10.870;2023-05-07T15:03:08;18.30;66.10
70706;DHT22;59320;52.316;10.870;2023-05-07T15:05:36;18.00;67.40
70706;DHT22;59320;52.316;10.870;2023-05-07T15:08:03;17.90;67.80
70706;DHT22;59320;52.316;10.870;2023-05-07T15:10:30;18.20;67.60
70706;DHT22;59320;52.316;10.870;2023-05-07T15:12:59;19.80;64.30
70706;DHT22;59320;52.316;10.870;2023-05-07T15:15:26;20.80;60.20
70706;DHT22;59320;52.316;10.870;2023-05-07T15:17:54;21.10;59.50
70706;DHT22;59320;52.316;10.870;2023-05-07T15:20:21;23.40;56.80
70706;DHT22;59320;52.316;10.870;2023-05-07T15:22:48;24.20;54.00
70706;DHT22;59320;52.316;10.870;2023-05-07T15:25:15;23.60;53.90
70706;DHT22;59320;52.316;10.870;2023-05-07T15:27:43;24.20;53.30
70706;DHT22;59320;52.316;10.870;2023-05-07T15:30:13;23.50;52.80